sensor_id;sensor_type;location;lat;lon;timestamp;P1;durP1;ratioP1;P2;durP2;ratioP2
27265;SDS011;14766;51.380;13.762;2023-04-01T00:00:07;5.05;;;1.10;;
27265;SDS011;14766;51.380;13.762;2023-04-01T00:02:38;1.42;;;0.80;;
27265;SDS011;14766;51.380;13.762;2023-04-01T00:05:07;1.70;;;0.80;;
27265;SDS011;14766;51.380;13.762;2023-04-01T00:07:37;1.90;;;0.80;;
27265;SDS011;14766;51.380;13.762;2023-04-01T00:10:05;2.90;;;0.82;;
27265;SDS011;14766;51.380;13.762;2023-04-01T00:12:33;2.30;;;0.82;;
27265;SDS011;14766;51.380;13.762;2023-04-01T00:15:02;1.65;;;0.70;;
27265;SDS011;14766;51.380;13.762;2023-04-01T00:17:31;1.77;;;0.70;;
27265;SDS011;14766;51.380;13.762;2023-04-01T00:19:58;2.50;;;0.98;;
27265;SDS011;14766;51.380;13.762;2023-04-01T00:22:25;2.50;;;0.80;;
27265;SDS011;14766;51.380;13.762;2023-04-01T00:24:53;2.92;;;0.68;;
27265;SDS011;14766;51.380;13.762;2023-04-01T00:27:20;1.15;;;0.65;;
27265;SDS011;14766;51.380;13.762;2023-04-01T00:29:47;2.55;;;0.88;;
27265;SDS011;14766;51.380;13.762;2023-04-01T00:32:14;1.50;;;0.60;;
27265;SDS011;14766;51.380;13.762;2023-04-01T00:34:41;3.28;;;1.20;;
27265;SDS011;14766;51.380;13.762;2023-04-01T00:37:08;1.90;;;0.70;;
27265;SDS011;14766;51.380;13.762;2023-04-01T00:39:36;1.80;;;0.75;;
27265;SDS011;14766;51.380;13.762;2023-04-01T00:42:03;1.20;;;0.70;;
27265;SDS011;14766;51.380;13.762;2023-04-01T00:44:31;1.73;;;0.85;;
27265;SDS011;14766;51.380;13.762;2023-04-01T00:47:03;1.65;;;0.77;;
27265;SDS011;14766;51.380;13.762;2023-04-01T00:49:31;2.45;;;0.75;;
27265;SDS011;14766;51.380;13.762;2023-04-01T00:52:03;1.67;;;0.70;;
27265;SDS011;14766;51.380;13.762;2023-04-01T00:54:32;4.45;;;1.00;;
27265;SDS011;14766;51.380;13.762;2023-04-01T00:57:05;2.58;;;0.73;;
27265;SDS011;14766;51.380;13.762;2023-04-01T00:59:56;2.40;;;0.80;;
27265;SDS011;14766;51.380;13.762;2023-04-01T01:02:23;1.70;;;0.75;;
27265;SDS011;14766;51.380;13.762;2023-04-01T01:04:52;2.92;;;0.90;;
27265;SDS011;14766;51.380;13.762;2023-04-01T01:10:24;1.40;;;0.80;;
27265;SDS011;14766;51.380;13.762;2023-04-01T01:15:55;3.03;;;0.80;;
27265;SDS011;14766;51.380;13.762;2023-04-01T01:32:58;2.90;;;0.75;;
27265;SDS011;14766;51.380;13.762;2023-04-01T01:37:55;3.58;;;0.80;;
27265;SDS011;14766;51.380;13.762;2023-04-01T01:40:26;2.05;;;0.60;;
27265;SDS011;14766;51.380;13.762;2023-04-01T01:42:56;2.75;;;0.98;;
27265;SDS011;14766;51.380;13.762;2023-04-01T01:45:27;2.67;;;0.80;;
27265;SDS011;14766;51.380;13.762;2023-04-01T01:47:59;2.95;;;0.85;;
27265;SDS011;14766;51.380;13.762;2023-04-01T01:50:29;4.70;;;0.85;;
27265;SDS011;14766;51.380;13.762;2023-04-01T01:53:00;3.67;;;0.85;;
27265;SDS011;14766;51.380;13.762;2023-04-01T01:55:33;3.97;;;1.60;;
27265;SDS011;14766;51.380;13.762;2023-04-01T01:58:04;3.50;;;0.90;;
27265;SDS011;14766;51.380;13.762;2023-04-01T02:03:05;1.63;;;0.77;;
27265;SDS011;14766;51.380;13.762;2023-04-01T02:05:33;3.40;;;1.10;;
27265;SDS011;14766;51.380;13.762;2023-04-01T02:08:21;3.38;;;0.90;;
27265;SDS011;14766;51.380;13.762;2023-04-01T02:11:12;2.85;;;1.10;;
27265;SDS011;14766;51.380;13.762;2023-04-01T02:19:39;2.97;;;0.80;;
27265;SDS011;14766;51.380;13.762;2023-04-01T02:22:16;7.50;;;1.55;;
27265;SDS011;14766;51.380;13.762;2023-04-01T02:24:48;2.58;;;0.85;;
27265;SDS011;14766;51.380;13.762;2023-04-01T02:27:18;2.78;;;1.10;;
27265;SDS011;14766;51.380;13.762;2023-04-01T02:29:46;3.28;;;1.02;;
27265;SDS011;14766;51.380;13.762;2023-04-01T02:32:14;2.88;;;0.80;;
27265;SDS011;14766;51.380;13.762;2023-04-01T02:34:41;1.90;;;0.90;;
27265;SDS011;14766;51.380;13.762;2023-04-01T02:37:10;3.72;;;1.00;;
27265;SDS011;14766;51.380;13.762;2023-04-01T02:39:40;1.65;;;0.77;;
27265;SDS011;14766;51.380;13.762;2023-04-01T02:42:09;2.40;;;0.98;;
27265;SDS011;14766;51.380;13.762;2023-04-01T02:44:37;2.85;;;0.80;;
27265;SDS011;14766;51.380;13.762;2023-04-01T02:47:05;2.30;;;0.88;;
27265;SDS011;14766;51.380;13.762;2023-04-01T02:49:32;3.53;;;0.85;;
27265;SDS011;14766;51.380;13.762;2023-04-01T02:51:59;2.35;;;0.88;;
27265;SDS011;14766;51.380;13.762;2023-04-01T02:54:27;3.50;;;0.80;;
27265;SDS011;14766;51.380;13.762;2023-04-01T02:56:55;1.35;;;0.90;;
27265;SDS011;14766;51.380;13.762;2023-04-01T02:59:22;2.15;;;1.08;;
27265;SDS011;14766;51.380;13.762;2023-04-01T03:01:49;2.15;;;0.90;;
27265;SDS011;14766;51.380;13.762;2023-04-01T03:04:16;2.72;;;1.02;;
27265;SDS011;14766;51.380;13.762;2023-04-01T03:06:44;1.58;;;0.85;;
27265;SDS011;14766;51.380;13.762;2023-04-01T03:09:11;2.72;;;0.90;;
27265;SDS011;14766;51.380;13.762;2023-04-01T03:11:38;3.10;;;1.10;;
27265;SDS011;14766;51.380;13.762;2023-04-01T03:14:05;3.47;;;0.90;;
27265;SDS011;14766;51.380;13.762;2023-04-01T03:16:33;2.08;;;0.70;;
27265;SDS011;14766;51.380;13.762;2023-04-01T03:19:00;1.58;;;0.80;;
27265;SDS011;14766;51.380;13.762;2023-04-01T03:21:28;2.88;;;1.10;;
27265;SDS011;14766;51.380;13.762;2023-04-01T03:23:55;3.00;;;0.88;;
27265;SDS011;14766;51.380;13.762;2023-04-01T03:26:23;3.58;;;1.20;;
27265;SDS011;14766;51.380;13.762;2023-04-01T03:28:50;3.97;;;1.27;;
27265;SDS011;14766;51.380;13.762;2023-04-01T03:31:16;1.80;;;0.80;;
27265;SDS011;14766;51.380;13.762;2023-04-01T03:33:50;3.67;;;1.00;;
27265;SDS011;14766;51.380;13.762;2023-04-01T03:36:17;2.90;;;0.90;;
27265;SDS011;14766;51.380;13.762;2023-04-01T03:38:45;2.35;;;0.80;;
27265;SDS011;14766;51.380;13.762;2023-04-01T03:41:17;2.78;;;0.82;;
27265;SDS011;14766;51.380;13.762;2023-04-01T03:43:45;2.83;;;0.93;;
27265;SDS011;14766;51.380;13.762;2023-04-01T03:46:16;3.50;;;0.80;;
27265;SDS011;14766;51.380;13.762;2023-04-01T03:48:45;3.55;;;1.00;;
27265;SDS011;14766;51.380;13.762;2023-04-01T03:51:13;1.85;;;0.80;;
27265;SDS011;14766;51.380;13.762;2023-04-01T03:53:40;1.65;;;0.77;;
27265;SDS011;14766;51.380;13.762;2023-04-01T03:56:07;3.58;;;0.93;;
27265;SDS011;14766;51.380;13.762;2023-04-01T03:58:35;2.33;;;1.00;;
27265;SDS011;14766;51.380;13.762;2023-04-01T04:01:18;2.22;;;1.05;;
27265;SDS011;14766;51.380;13.762;2023-04-01T04:03:50;2.05;;;0.77;;
27265;SDS011;14766;51.380;13.762;2023-04-01T04:06:18;1.52;;;0.70;;
27265;SDS011;14766;51.380;13.762;2023-04-01T04:08:47;2.92;;;1.05;;
27265;SDS011;14766;51.380;13.762;2023-04-01T04:11:15;1.23;;;0.70;;
27265;SDS011;14766;51.380;13.762;2023-04-01T04:13:43;1.52;;;0.73;;
27265;SDS011;14766;51.380;13.762;2023-04-01T04:16:11;2.38;;;1.10;;
27265;SDS011;14766;51.380;13.762;2023-04-01T04:18:43;4.30;;;1.33;;
27265;SDS011;14766;51.380;13.762;2023-04-01T04:21:12;3.03;;;1.20;;
27265;SDS011;14766;51.380;13.762;2023-04-01T04:23:42;2.58;;;0.93;;
27265;SDS011;14766;51.380;13.762;2023-04-01T04:26:12;4.80;;;1.02;;
27265;SDS011;14766;51.380;13.762;2023-04-01T04:28:46;4.03;;;1.33;;
27265;SDS011;14766;51.380;13.762;2023-04-01T04:31:18;3.53;;;1.10;;
27265;SDS011;14766;51.380;13.762;2023-04-01T04:33:48;4.38;;;1.30;;
27265;SDS011;14766;51.380;13.762;2023-04-01T04:36:15;2.97;;;1.13;;
27265;SDS011;14766;51.380;13.762;2023-04-01T04:38:42;5.10;;;1.52;;
27265;SDS011;14766;51.380;13.762;2023-04-01T04:41:10;2.75;;;1.10;;
27265;SDS011;14766;51.380;13.762;2023-04-01T04:43:48;4.18;;;1.23;;
27265;SDS011;14766;51.380;13.762;2023-04-01T04:46:21;3.55;;;1.23;;
27265;SDS011;14766;51.380;13.762;2023-04-01T04:48:53;2.85;;;1.17;;
27265;SDS011;14766;51.380;13.762;2023-04-01T04:51:21;2.03;;;0.90;;
27265;SDS011;14766;51.380;13.762;2023-04-01T04:53:48;2.78;;;0.95;;
27265;SDS011;14766;51.380;13.762;2023-04-01T04:56:21;4.22;;;1.25;;
27265;SDS011;14766;51.380;13.762;2023-04-01T04:59:09;1.00;;;0.82;;
27265;SDS011;14766;51.380;13.762;2023-04-01T05:01:46;4.03;;;1.05;;
27265;SDS011;14766;51.380;13.762;2023-04-01T05:04:13;3.08;;;1.10;;
27265;SDS011;14766;51.380;13.762;2023-04-01T05:06:42;5.07;;;1.17;;
27265;SDS011;14766;51.380;13.762;2023-04-01T05:09:11;3.88;;;1.25;;
27265;SDS011;14766;51.380;13.762;2023-04-01T05:11:38;4.72;;;1.25;;
27265;SDS011;14766;51.380;13.762;2023-04-01T05:14:11;4.28;;;1.75;;
27265;SDS011;14766;51.380;13.762;2023-04-01T05:16:48;3.70;;;1.10;;
27265;SDS011;14766;51.380;13.762;2023-04-01T05:19:17;2.13;;;1.13;;
27265;SDS011;14766;51.380;13.762;2023-04-01T05:21:44;3.03;;;1.10;;
27265;SDS011;14766;51.380;13.762;2023-04-01T05:24:11;4.50;;;1.15;;
27265;SDS011;14766;51.380;13.762;2023-04-01T05:26:39;2.30;;;1.00;;
27265;SDS011;14766;51.380;13.762;2023-04-01T05:29:06;4.03;;;1.20;;
27265;SDS011;14766;51.380;13.762;2023-04-01T05:31:33;5.55;;;2.40;;
27265;SDS011;14766;51.380;13.762;2023-04-01T05:34:03;8.60;;;4.15;;
27265;SDS011;14766;51.380;13.762;2023-04-01T05:36:31;3.95;;;1.48;;
27265;SDS011;14766;51.380;13.762;2023-04-01T05:38:58;3.95;;;1.30;;
27265;SDS011;14766;51.380;13.762;2023-04-01T05:41:26;3.40;;;1.48;;
27265;SDS011;14766;51.380;13.762;2023-04-01T05:43:54;6.38;;;1.48;;
27265;SDS011;14766;51.380;13.762;2023-04-01T05:46:40;3.67;;;1.40;;
27265;SDS011;14766;51.380;13.762;2023-04-01T05:49:18;3.67;;;1.25;;
27265;SDS011;14766;51.380;13.762;2023-04-01T05:51:47;1.48;;;1.10;;
27265;SDS011;14766;51.380;13.762;2023-04-01T05:54:17;3.40;;;1.33;;
27265;SDS011;14766;51.380;13.762;2023-04-01T05:56:45;2.72;;;0.98;;
27265;SDS011;14766;51.380;13.762;2023-04-01T05:59:14;2.35;;;1.30;;
27265;SDS011;14766;51.380;13.762;2023-04-01T06:01:43;2.70;;;1.00;;
27265;SDS011;14766;51.380;13.762;2023-04-01T06:04:13;3.60;;;1.08;;
27265;SDS011;14766;51.380;13.762;2023-04-01T06:06:43;1.73;;;1.00;;
27265;SDS011;14766;51.380;13.762;2023-04-01T06:09:13;2.25;;;0.88;;
27265;SDS011;14766;51.380;13.762;2023-04-01T06:20:53;2.45;;;1.10;;
27265;SDS011;14766;51.380;13.762;2023-04-01T06:24:15;3.17;;;1.23;;
27265;SDS011;14766;51.380;13.762;2023-04-01T06:37:46;3.08;;;1.17;;
27265;SDS011;14766;51.380;13.762;2023-04-01T06:58:04;1.92;;;1.30;;
27265;SDS011;14766;51.380;13.762;2023-04-01T07:00:39;2.72;;;1.50;;
27265;SDS011;14766;51.380;13.762;2023-04-01T07:09:12;1.90;;;1.30;;
27265;SDS011;14766;51.380;13.762;2023-04-01T07:12:12;4.07;;;1.55;;
27265;SDS011;14766;51.380;13.762;2023-04-01T07:15:15;1.98;;;1.00;;
27265;SDS011;14766;51.380;13.762;2023-04-01T07:18:16;2.65;;;1.42;;
27265;SDS011;14766;51.380;13.762;2023-04-01T07:20:47;2.85;;;1.30;;
27265;SDS011;14766;51.380;13.762;2023-04-01T07:23:29;3.35;;;1.35;;
27265;SDS011;14766;51.380;13.762;2023-04-01T07:26:27;2.85;;;1.50;;
27265;SDS011;14766;51.380;13.762;2023-04-01T07:28:57;4.30;;;2.70;;
27265;SDS011;14766;51.380;13.762;2023-04-01T07:31:48;4.13;;;2.53;;
27265;SDS011;14766;51.380;13.762;2023-04-01T07:37:45;3.58;;;1.85;;
27265;SDS011;14766;51.380;13.762;2023-04-01T07:49:04;2.90;;;1.00;;
27265;SDS011;14766;51.380;13.762;2023-04-01T07:51:59;2.50;;;1.20;;
27265;SDS011;14766;51.380;13.762;2023-04-01T07:57:50;3.22;;;1.40;;
27265;SDS011;14766;51.380;13.762;2023-04-01T08:06:15;3.07;;;1.20;;
27265;SDS011;14766;51.380;13.762;2023-04-01T08:15:36;3.10;;;1.15;;
27265;SDS011;14766;51.380;13.762;2023-04-01T08:18:28;3.25;;;1.05;;
27265;SDS011;14766;51.380;13.762;2023-04-01T08:23:44;1.67;;;0.80;;
27265;SDS011;14766;51.380;13.762;2023-04-01T08:31:51;3.53;;;1.10;;
27265;SDS011;14766;51.380;13.762;2023-04-01T08:34:26;3.40;;;0.90;;
27265;SDS011;14766;51.380;13.762;2023-04-01T08:37:03;2.22;;;0.82;;
27265;SDS011;14766;51.380;13.762;2023-04-01T08:39:41;2.75;;;0.80;;
27265;SDS011;14766;51.380;13.762;2023-04-01T08:48:13;2.78;;;1.08;;
27265;SDS011;14766;51.380;13.762;2023-04-01T08:54:09;3.65;;;1.05;;
27265;SDS011;14766;51.380;13.762;2023-04-01T08:57:15;2.65;;;0.82;;
27265;SDS011;14766;51.380;13.762;2023-04-01T09:06:37;2.33;;;1.27;;
27265;SDS011;14766;51.380;13.762;2023-04-01T09:09:15;2.45;;;1.15;;
27265;SDS011;14766;51.380;13.762;2023-04-01T09:15:12;6.47;;;1.85;;
27265;SDS011;14766;51.380;13.762;2023-04-01T09:18:09;3.40;;;1.38;;
27265;SDS011;14766;51.380;13.762;2023-04-01T09:21:05;3.38;;;1.35;;
27265;SDS011;14766;51.380;13.762;2023-04-01T09:40:33;2.53;;;1.20;;
27265;SDS011;14766;51.380;13.762;2023-04-01T10:16:20;1.90;;;0.70;;
27265;SDS011;14766;51.380;13.762;2023-04-01T10:21:47;1.20;;;0.82;;
27265;SDS011;14766;51.380;13.762;2023-04-01T10:35:24;2.38;;;1.00;;
27265;SDS011;14766;51.380;13.762;2023-04-01T10:46:53;1.17;;;0.82;;
27265;SDS011;14766;51.380;13.762;2023-04-01T10:49:44;1.35;;;0.80;;
27265;SDS011;14766;51.380;13.762;2023-04-01T11:04:56;1.60;;;0.98;;
27265;SDS011;14766;51.380;13.762;2023-04-01T11:13:41;1.63;;;1.00;;
27265;SDS011;14766;51.380;13.762;2023-04-01T11:22:35;2.10;;;1.30;;
27265;SDS011;14766;51.380;13.762;2023-04-01T11:28:28;2.05;;;0.80;;
27265;SDS011;14766;51.380;13.762;2023-04-01T11:37:37;1.65;;;0.90;;
27265;SDS011;14766;51.380;13.762;2023-04-01T11:40:41;2.38;;;0.88;;
27265;SDS011;14766;51.380;13.762;2023-04-01T11:43:52;1.50;;;1.00;;
27265;SDS011;14766;51.380;13.762;2023-04-01T12:01:10;2.08;;;0.80;;
27265;SDS011;14766;51.380;13.762;2023-04-01T12:09:49;3.20;;;1.20;;
27265;SDS011;14766;51.380;13.762;2023-04-01T12:12:35;2.55;;;1.40;;
27265;SDS011;14766;51.380;13.762;2023-04-01T12:15:23;2.35;;;1.35;;
27265;SDS011;14766;51.380;13.762;2023-04-01T12:21:34;3.00;;;1.80;;
27265;SDS011;14766;51.380;13.762;2023-04-01T12:29:54;2.13;;;0.85;;
27265;SDS011;14766;51.380;13.762;2023-04-01T12:32:57;2.22;;;0.73;;
27265;SDS011;14766;51.380;13.762;2023-04-01T12:49:02;2.65;;;1.00;;
27265;SDS011;14766;51.380;13.762;2023-04-01T12:51:41;3.05;;;1.42;;
27265;SDS011;14766;51.380;13.762;2023-04-01T13:02:01;0.88;;;0.40;;
27265;SDS011;14766;51.380;13.762;2023-04-01T13:18:11;0.70;;;0.40;;
27265;SDS011;14766;51.380;13.762;2023-04-01T13:21:08;1.52;;;0.55;;
27265;SDS011;14766;51.380;13.762;2023-04-01T13:23:55;0.95;;;0.52;;
27265;SDS011;14766;51.380;13.762;2023-04-01T13:26:28;1.08;;;0.85;;
27265;SDS011;14766;51.380;13.762;2023-04-01T13:29:03;1.08;;;0.90;;
27265;SDS011;14766;51.380;13.762;2023-04-01T13:37:23;0.55;;;0.50;;
27265;SDS011;14766;51.380;13.762;2023-04-01T13:42:49;0.68;;;0.63;;
27265;SDS011;14766;51.380;13.762;2023-04-01T13:54:00;1.10;;;0.80;;
27265;SDS011;14766;51.380;13.762;2023-04-01T13:57:07;0.95;;;0.70;;
27265;SDS011;14766;51.380;13.762;2023-04-01T14:11:32;0.75;;;0.70;;
27265;SDS011;14766;51.380;13.762;2023-04-01T14:14:21;0.60;;;0.60;;
27265;SDS011;14766;51.380;13.762;2023-04-01T14:17:14;1.45;;;1.00;;
27265;SDS011;14766;51.380;13.762;2023-04-01T14:19:53;1.27;;;1.17;;
27265;SDS011;14766;51.380;13.762;2023-04-01T14:25:29;1.27;;;0.70;;
27265;SDS011;14766;51.380;13.762;2023-04-01T14:31:15;0.90;;;0.73;;
27265;SDS011;14766;51.380;13.762;2023-04-01T14:50:46;0.60;;;0.60;;
27265;SDS011;14766;51.380;13.762;2023-04-01T14:58:24;1.08;;;0.60;;
27265;SDS011;14766;51.380;13.762;2023-04-01T15:09:56;1.00;;;0.80;;
27265;SDS011;14766;51.380;13.762;2023-04-01T15:12:40;0.95;;;0.60;;
27265;SDS011;14766;51.380;13.762;2023-04-01T15:34:54;0.82;;;0.70;;
27265;SDS011;14766;51.380;13.762;2023-04-01T15:40:02;1.17;;;0.60;;
27265;SDS011;14766;51.380;13.762;2023-04-01T15:45:24;1.10;;;0.57;;
27265;SDS011;14766;51.380;13.762;2023-04-01T15:48:06;0.88;;;0.55;;
27265;SDS011;14766;51.380;13.762;2023-04-01T15:51:16;0.80;;;0.80;;
27265;SDS011;14766;51.380;13.762;2023-04-01T15:53:56;2.13;;;0.73;;
27265;SDS011;14766;51.380;13.762;2023-04-01T16:02:07;3.10;;;1.60;;
27265;SDS011;14766;51.380;13.762;2023-04-01T16:04:48;1.77;;;1.60;;
27265;SDS011;14766;51.380;13.762;2023-04-01T16:07:48;2.10;;;1.48;;
27265;SDS011;14766;51.380;13.762;2023-04-01T16:17:12;2.30;;;1.42;;
27265;SDS011;14766;51.380;13.762;2023-04-01T16:25:26;2.40;;;1.13;;
27265;SDS011;14766;51.380;13.762;2023-04-01T16:28:19;0.82;;;0.82;;
27265;SDS011;14766;51.380;13.762;2023-04-01T16:37:09;0.80;;;0.80;;
27265;SDS011;14766;51.380;13.762;2023-04-01T16:39:44;0.80;;;0.50;;
27265;SDS011;14766;51.380;13.762;2023-04-01T16:42:26;0.52;;;0.40;;
27265;SDS011;14766;51.380;13.762;2023-04-01T16:47:36;3.35;;;1.83;;
27265;SDS011;14766;51.380;13.762;2023-04-01T16:53:08;5.55;;;4.28;;
27265;SDS011;14766;51.380;13.762;2023-04-01T16:56:03;2.55;;;2.30;;
27265;SDS011;14766;51.380;13.762;2023-04-01T16:58:42;1.75;;;1.52;;
27265;SDS011;14766;51.380;13.762;2023-04-01T17:01:19;1.23;;;1.10;;
27265;SDS011;14766;51.380;13.762;2023-04-01T17:09:21;1.92;;;1.00;;
27265;SDS011;14766;51.380;13.762;2023-04-01T17:22:59;2.63;;;1.60;;
27265;SDS011;14766;51.380;13.762;2023-04-01T17:25:34;1.60;;;1.50;;
27265;SDS011;14766;51.380;13.762;2023-04-01T17:31:24;1.42;;;1.27;;
27265;SDS011;14766;51.380;13.762;2023-04-01T17:42:58;0.75;;;0.75;;
27265;SDS011;14766;51.380;13.762;2023-04-01T17:45:36;1.52;;;1.10;;
27265;SDS011;14766;51.380;13.762;2023-04-01T17:48:36;1.00;;;0.90;;
27265;SDS011;14766;51.380;13.762;2023-04-01T17:56:32;2.17;;;1.25;;
27265;SDS011;14766;51.380;13.762;2023-04-01T18:10:24;3.50;;;2.45;;
27265;SDS011;14766;51.380;13.762;2023-04-01T18:13:59;4.60;;;3.75;;
27265;SDS011;14766;51.380;13.762;2023-04-01T18:22:28;3.65;;;1.60;;
27265;SDS011;14766;51.380;13.762;2023-04-01T18:27:53;1.92;;;1.70;;
27265;SDS011;14766;51.380;13.762;2023-04-01T18:30:40;2.60;;;1.67;;
27265;SDS011;14766;51.380;13.762;2023-04-01T18:33:18;1.60;;;1.50;;
27265;SDS011;14766;51.380;13.762;2023-04-01T18:35:53;2.13;;;1.90;;
27265;SDS011;14766;51.380;13.762;2023-04-01T18:38:33;2.00;;;1.73;;
27265;SDS011;14766;51.380;13.762;2023-04-01T18:41:13;2.00;;;1.67;;
27265;SDS011;14766;51.380;13.762;2023-04-01T18:56:13;3.72;;;2.72;;
27265;SDS011;14766;51.380;13.762;2023-04-01T19:04:03;2.72;;;2.33;;
27265;SDS011;14766;51.380;13.762;2023-04-01T19:06:59;2.70;;;2.30;;
27265;SDS011;14766;51.380;13.762;2023-04-01T19:09:42;2.40;;;2.20;;
27265;SDS011;14766;51.380;13.762;2023-04-01T19:29:16;4.50;;;3.38;;
27265;SDS011;14766;51.380;13.762;2023-04-01T19:37:51;3.75;;;3.35;;
27265;SDS011;14766;51.380;13.762;2023-04-01T19:43:28;3.58;;;3.20;;
27265;SDS011;14766;51.380;13.762;2023-04-01T19:46:03;5.05;;;4.03;;
27265;SDS011;14766;51.380;13.762;2023-04-01T19:54:37;4.20;;;3.80;;
27265;SDS011;14766;51.380;13.762;2023-04-01T20:03:04;3.78;;;3.30;;
27265;SDS011;14766;51.380;13.762;2023-04-01T20:08:23;3.33;;;3.00;;
27265;SDS011;14766;51.380;13.762;2023-04-01T20:11:18;6.03;;;4.63;;
27265;SDS011;14766;51.380;13.762;2023-04-01T20:19:53;20.67;;;11.25;;
27265;SDS011;14766;51.380;13.762;2023-04-01T20:27:51;31.38;;;16.63;;
27265;SDS011;14766;51.380;13.762;2023-04-01T20:30:27;33.08;;;17.15;;
27265;SDS011;14766;51.380;13.762;2023-04-01T20:40:52;21.42;;;11.95;;
27265;SDS011;14766;51.380;13.762;2023-04-01T20:46:30;13.45;;;9.00;;
27265;SDS011;14766;51.380;13.762;2023-04-01T20:49:40;7.05;;;5.43;;
27265;SDS011;14766;51.380;13.762;2023-04-01T20:52:19;3.88;;;3.47;;
27265;SDS011;14766;51.380;13.762;2023-04-01T20:55:17;4.57;;;3.50;;
27265;SDS011;14766;51.380;13.762;2023-04-01T21:00:57;4.22;;;3.30;;
27265;SDS011;14766;51.380;13.762;2023-04-01T21:23:21;1.95;;;1.85;;
27265;SDS011;14766;51.380;13.762;2023-04-01T21:26:24;2.25;;;1.73;;
27265;SDS011;14766;51.380;13.762;2023-04-01T21:29:45;1.80;;;1.70;;
27265;SDS011;14766;51.380;13.762;2023-04-01T21:35:00;2.38;;;1.95;;
27265;SDS011;14766;51.380;13.762;2023-04-01T21:38:09;2.00;;;1.80;;
27265;SDS011;14766;51.380;13.762;2023-04-01T21:41:07;2.70;;;1.85;;
27265;SDS011;14766;51.380;13.762;2023-04-01T21:44:02;1.98;;;1.85;;
27265;SDS011;14766;51.380;13.762;2023-04-01T22:00:56;1.40;;;1.30;;
27265;SDS011;14766;51.380;13.762;2023-04-01T22:09:25;1.40;;;1.30;;
27265;SDS011;14766;51.380;13.762;2023-04-01T22:12:14;1.52;;;1.30;;
27265;SDS011;14766;51.380;13.762;2023-04-01T22:14:53;1.90;;;1.42;;
27265;SDS011;14766;51.380;13.762;2023-04-01T22:20:29;2.83;;;1.63;;
27265;SDS011;14766;51.380;13.762;2023-04-01T22:28:51;1.48;;;1.38;;
27265;SDS011;14766;51.380;13.762;2023-04-01T22:31:46;1.75;;;1.60;;
27265;SDS011;14766;51.380;13.762;2023-04-01T22:34:34;2.20;;;1.67;;
27265;SDS011;14766;51.380;13.762;2023-04-01T22:37:34;1.70;;;1.55;;
27265;SDS011;14766;51.380;13.762;2023-04-01T22:40:23;1.65;;;1.52;;
27265;SDS011;14766;51.380;13.762;2023-04-01T22:43:18;2.13;;;1.52;;
27265;SDS011;14766;51.380;13.762;2023-04-01T22:46:03;2.13;;;1.83;;
27265;SDS011;14766;51.380;13.762;2023-04-01T22:48:37;2.25;;;1.83;;
27265;SDS011;14766;51.380;13.762;2023-04-01T22:56:20;2.80;;;2.20;;
27265;SDS011;14766;51.380;13.762;2023-04-01T23:01:51;3.42;;;2.22;;
27265;SDS011;14766;51.380;13.762;2023-04-01T23:04:32;2.30;;;2.10;;
27265;SDS011;14766;51.380;13.762;2023-04-01T23:07:13;4.00;;;2.30;;
27265;SDS011;14766;51.380;13.762;2023-04-01T23:10:56;2.80;;;2.00;;
27265;SDS011;14766;51.380;13.762;2023-04-01T23:13:16;3.15;;;2.30;;
27265;SDS011;14766;51.380;13.762;2023-04-01T23:15:50;2.97;;;2.67;;
27265;SDS011;14766;51.380;13.762;2023-04-01T23:24:16;3.45;;;2.85;;
27265;SDS011;14766;51.380;13.762;2023-04-01T23:26:52;3.58;;;2.72;;
27265;SDS011;14766;51.380;13.762;2023-04-01T23:29:26;4.53;;;2.78;;
27265;SDS011;14766;51.380;13.762;2023-04-01T23:32:01;4.32;;;2.90;;
27265;SDS011;14766;51.380;13.762;2023-04-01T23:34:30;3.72;;;2.92;;
27265;SDS011;14766;51.380;13.762;2023-04-01T23:37:02;3.17;;;2.80;;
27265;SDS011;14766;51.380;13.762;2023-04-01T23:39:40;3.60;;;2.90;;
27265;SDS011;14766;51.380;13.762;2023-04-01T23:42:15;3.22;;;2.60;;
27265;SDS011;14766;51.380;13.762;2023-04-01T23:44:46;2.88;;;2.45;;
27265;SDS011;14766;51.380;13.762;2023-04-01T23:47:17;3.05;;;2.75;;
27265;SDS011;14766;51.380;13.762;2023-04-01T23:49:49;2.70;;;2.45;;
